createdAt,value
2023-05-06T00:00:27.409Z,8.70
2023-05-06T00:02:55.241Z,9.43
2023-05-06T00:05:22.429Z,9.03
2023-05-06T00:07:49.348Z,8.57
2023-05-06T00:10:16.872Z,7.70
2023-05-06T00:12:43.867Z,9.13
2023-05-06T00:15:11.504Z,9.40
2023-05-06T00:17:38.795Z,8.67
2023-05-06T00:20:07.328Z,9.47
2023-05-06T00:22:34.214Z,9.07
2023-05-06T00:25:01.155Z,9.10
2023-05-06T00:27:28.102Z,11.40
2023-05-06T00:29:55.049Z,9.37
2023-05-06T00:32:21.899Z,9.47
2023-05-06T00:34:48.747Z,11.67
2023-05-06T00:37:15.645Z,9.70
2023-05-06T00:39:42.616Z,9.80
2023-05-06T00:42:09.532Z,10.73
2023-05-06T00:44:36.442Z,11.83
2023-05-06T00:47:04.597Z,11.03
2023-05-06T00:49:32.097Z,10.93
2023-05-06T00:52:00.130Z,11.80
2023-05-06T00:54:29.585Z,12.03
2023-05-06T00:56:56.549Z,12.40
2023-05-06T00:59:23.979Z,10.83
2023-05-06T01:01:52.145Z,12.93
2023-05-06T01:04:20.033Z,11.53
2023-05-06T01:07:46.459Z,12.57
2023-05-06T01:10:31.182Z,11.33
2023-05-06T01:13:58.899Z,11.80
2023-05-06T01:16:30.802Z,12.33
2023-05-06T01:19:00.588Z,12.60
2023-05-06T01:21:34.565Z,12.80
2023-05-06T01:24:02.144Z,11.90
2023-05-06T01:26:29.075Z,13.73
2023-05-06T01:28:58.275Z,13.93
2023-05-06T01:31:45.397Z,12.70
2023-05-06T01:34:45.360Z,15.13
2023-05-06T01:37:47.131Z,13.90
2023-05-06T01:40:17.607Z,13.27
2023-05-06T01:42:51.544Z,12.57
2023-05-06T01:45:24.301Z,11.90
2023-05-06T01:47:52.167Z,13.43
2023-05-06T01:50:19.757Z,14.40
2023-05-06T01:53:02.398Z,12.03
2023-05-06T01:55:29.771Z,12.43
2023-05-06T01:57:56.827Z,13.20
2023-05-06T02:00:24.971Z,13.73
2023-05-06T02:02:52.087Z,15.03
2023-05-06T02:05:19.254Z,14.60
2023-05-06T02:07:46.208Z,13.93
2023-05-06T02:10:13.255Z,15.20
2023-05-06T02:12:40.255Z,13.60
2023-05-06T02:15:08.480Z,13.97
2023-05-06T02:17:38.423Z,13.30
2023-05-06T02:20:07.105Z,14.30
2023-05-06T02:22:34.031Z,14.87
2023-05-06T02:25:01.360Z,15.60
2023-05-06T02:27:28.314Z,15.90
2023-05-06T02:29:55.262Z,17.07
2023-05-06T02:32:22.159Z,15.50
2023-05-06T02:34:49.060Z,15.80
2023-05-06T02:37:16.078Z,16.93
2023-05-06T02:39:43.054Z,16.40
2023-05-06T02:42:13.570Z,16.77
2023-05-06T02:44:40.680Z,15.27
2023-05-06T02:47:07.640Z,18.37
2023-05-06T02:49:34.503Z,18.50
2023-05-06T02:52:01.448Z,18.60
2023-05-06T02:54:28.333Z,18.40
2023-05-06T02:56:55.709Z,18.70
2023-05-06T02:59:23.876Z,16.57
2023-05-06T03:01:50.822Z,18.37
2023-05-06T03:04:18.280Z,20.70
2023-05-06T03:06:45.143Z,19.83
2023-05-06T03:09:12.096Z,18.33
2023-05-06T03:11:38.948Z,20.73
2023-05-06T03:14:05.985Z,20.17
2023-05-06T03:16:33.054Z,20.20
2023-05-06T03:19:00.296Z,20.83
2023-05-06T03:21:27.274Z,19.80
2023-05-06T03:23:54.355Z,20.30
2023-05-06T03:26:21.351Z,20.73
2023-05-06T03:28:48.313Z,19.90
2023-05-06T03:31:15.244Z,20.17
2023-05-06T03:33:42.510Z,20.10
2023-05-06T03:36:09.455Z,20.00
2023-05-06T03:38:36.369Z,20.10
2023-05-06T03:41:03.458Z,20.13
2023-05-06T03:43:30.380Z,21.00
2023-05-06T03:45:58.826Z,20.17
2023-05-06T03:48:25.926Z,21.67
2023-05-06T03:50:52.951Z,20.77
2023-05-06T03:53:20.057Z,22.73
2023-05-06T03:55:46.962Z,20.07
2023-05-06T03:58:13.931Z,21.57
2023-05-06T04:00:40.822Z,21.13
2023-05-06T04:03:07.860Z,21.33
2023-05-06T04:05:34.851Z,22.00
2023-05-06T04:08:01.732Z,23.43
2023-05-06T04:10:29.053Z,22.37
2023-05-06T04:12:56.004Z,21.13
2023-05-06T04:15:23.965Z,21.60
2023-05-06T04:17:50.922Z,22.00
2023-05-06T04:20:18.018Z,20.67
2023-05-06T04:22:44.978Z,22.17
2023-05-06T04:25:12.124Z,20.57
2023-05-06T04:27:39.171Z,20.20
2023-05-06T04:30:07.391Z,21.63
2023-05-06T04:32:34.406Z,21.60
2023-05-06T04:35:01.435Z,21.47
2023-05-06T04:37:28.984Z,21.27
2023-05-06T04:39:55.856Z,21.27
2023-05-06T04:42:22.955Z,21.77
2023-05-06T04:44:49.817Z,21.70
2023-05-06T04:47:16.971Z,21.40
2023-05-06T04:49:44.034Z,20.63
2023-05-06T04:52:10.990Z,22.40
2023-05-06T04:54:37.989Z,23.10
2023-05-06T04:57:04.839Z,21.70
2023-05-06T04:59:31.821Z,21.50
2023-05-06T05:01:58.673Z,22.90
2023-05-06T05:04:26.254Z,21.70
2023-05-06T05:06:53.184Z,21.70
2023-05-06T05:09:20.065Z,20.93
2023-05-06T05:11:46.945Z,21.83
2023-05-06T05:14:13.890Z,21.63
2023-05-06T05:16:40.862Z,21.60
2023-05-06T05:19:09.504Z,21.87
2023-05-06T05:21:36.504Z,20.30
2023-05-06T05:24:03.760Z,19.90
2023-05-06T05:26:30.676Z,21.90
2023-05-06T05:28:57.633Z,20.13
2023-05-06T05:31:24.589Z,19.77
2023-05-06T05:33:51.565Z,19.97
2023-05-06T05:36:19.017Z,20.30
2023-05-06T05:38:47.690Z,18.27
2023-05-06T05:41:17.314Z,21.40
2023-05-06T05:43:44.535Z,20.97
2023-05-06T05:46:11.445Z,19.93
2023-05-06T05:48:39.671Z,21.10
2023-05-06T05:51:06.723Z,19.90
2023-05-06T05:53:33.560Z,20.50
2023-05-06T05:56:00.416Z,18.60
2023-05-06T05:58:27.377Z,19.33
2023-05-06T06:00:54.233Z,19.80
2023-05-06T06:03:21.205Z,18.47
2023-05-06T06:05:49.262Z,18.20
2023-05-06T06:08:18.656Z,18.20
2023-05-06T06:10:46.072Z,17.17
2023-05-06T06:13:13.457Z,17.10
2023-05-06T06:15:41.300Z,16.97
2023-05-06T06:18:08.802Z,17.17
2023-05-06T06:20:36.842Z,18.70
2023-05-06T06:23:03.729Z,18.33
2023-05-06T06:25:30.852Z,16.90
2023-05-06T06:27:57.920Z,15.50
2023-05-06T06:30:25.076Z,13.90
2023-05-06T06:32:53.973Z,14.60
2023-05-06T06:35:21.017Z,14.13
2023-05-06T06:37:48.070Z,13.80
2023-05-06T06:40:16.082Z,13.40
2023-05-06T06:42:43.112Z,14.87
2023-05-06T06:45:11.096Z,12.67
2023-05-06T06:47:38.291Z,12.10
2023-05-06T06:50:06.561Z,11.50
2023-05-06T06:52:33.786Z,12.40
2023-05-06T06:55:02.161Z,11.07
2023-05-06T06:57:29.163Z,10.03
2023-05-06T06:59:56.160Z,9.03
2023-05-06T07:02:23.515Z,9.63
2023-05-06T07:04:50.507Z,8.93
2023-05-06T07:07:17.434Z,9.30
2023-05-06T07:09:44.600Z,10.50
2023-05-06T07:12:11.976Z,9.33
2023-05-06T07:14:39.002Z,9.93
2023-05-06T07:17:05.971Z,9.30
2023-05-06T07:19:32.969Z,8.00
2023-05-06T07:22:04.964Z,8.37
2023-05-06T07:24:32.047Z,8.20
2023-05-06T07:27:00.657Z,8.80
2023-05-06T07:29:27.642Z,8.93
2023-05-06T07:31:54.670Z,7.90
2023-05-06T07:34:21.559Z,8.20
2023-05-06T07:36:48.463Z,7.50
2023-05-06T07:39:15.711Z,8.00
2023-05-06T07:41:42.605Z,7.13
2023-05-06T07:44:09.497Z,6.60
2023-05-06T07:46:36.494Z,5.70
2023-05-06T07:49:03.489Z,6.70
2023-05-06T07:51:31.272Z,5.50
2023-05-06T07:53:58.260Z,4.60
2023-05-06T07:56:25.124Z,4.43
2023-05-06T07:58:52.052Z,5.00
2023-05-06T08:03:44.386Z,5.33
2023-05-06T08:06:11.526Z,4.97
2023-05-06T08:08:38.494Z,4.53
2023-05-06T08:11:05.434Z,4.47
2023-05-06T08:13:33.359Z,4.17
2023-05-06T08:16:02.228Z,3.53
2023-05-06T08:18:29.929Z,4.10
2023-05-06T08:20:56.987Z,3.80
2023-05-06T08:23:24.080Z,3.50
2023-05-06T08:25:51.272Z,4.07
2023-05-06T08:28:19.641Z,3.60
2023-05-06T08:30:48.292Z,3.60
2023-05-06T08:33:15.290Z,4.37
2023-05-06T08:35:42.284Z,4.07
2023-05-06T08:38:09.143Z,3.90
2023-05-06T08:40:44.954Z,4.37
2023-05-06T08:43:14.912Z,3.37
2023-05-06T08:45:42.414Z,3.33
2023-05-06T08:48:09.764Z,3.57
2023-05-06T08:50:45.706Z,3.57
2023-05-06T08:53:13.929Z,4.03
2023-05-06T08:55:45.281Z,3.90
2023-05-06T08:58:16.724Z,3.90
2023-05-06T09:00:46.097Z,3.67
2023-05-06T09:03:13.504Z,4.00
2023-05-06T09:05:40.434Z,3.43
2023-05-06T09:08:07.377Z,3.43
2023-05-06T09:10:46.068Z,3.73
2023-05-06T09:13:16.751Z,4.20
2023-05-06T09:15:49.223Z,4.43
2023-05-06T09:18:17.124Z,3.87
2023-05-06T09:20:49.857Z,4.00
2023-05-06T09:23:18.680Z,3.80
2023-05-06T09:25:47.699Z,3.40
2023-05-06T09:28:15.196Z,3.50
2023-05-06T09:30:47.314Z,2.80
2023-05-06T09:33:14.334Z,4.23
2023-05-06T09:35:44.457Z,3.07
2023-05-06T09:38:11.492Z,3.40
2023-05-06T09:40:39.671Z,3.63
2023-05-06T09:43:06.669Z,3.60
2023-05-06T09:45:33.773Z,2.87
2023-05-06T09:48:01.353Z,3.30
2023-05-06T09:50:28.778Z,3.37
2023-05-06T09:52:56.476Z,3.10
2023-05-06T09:55:26.521Z,2.73
2023-05-06T09:57:55.005Z,2.90
2023-05-06T10:00:27.946Z,2.53
2023-05-06T10:02:55.788Z,2.10
2023-05-06T10:05:26.068Z,2.23
2023-05-06T10:07:57.124Z,2.30
2023-05-06T10:10:28.200Z,2.80
2023-05-06T10:12:56.470Z,2.00
2023-05-06T10:15:26.538Z,1.50
2023-05-06T10:17:56.067Z,2.00
2023-05-06T10:20:27.592Z,1.93
2023-05-06T10:23:20.438Z,2.03
2023-05-06T10:25:53.466Z,1.87
2023-05-06T10:28:29.273Z,1.90
2023-05-06T10:30:59.807Z,1.73
2023-05-06T10:33:28.860Z,2.43
2023-05-06T10:36:25.830Z,2.53
2023-05-06T10:38:56.970Z,2.50
2023-05-06T10:41:27.982Z,2.50
2023-05-06T10:43:57.569Z,2.27
2023-05-06T10:46:28.156Z,2.80
2023-05-06T10:49:04.348Z,1.80
2023-05-06T10:51:32.755Z,2.10
2023-05-06T10:54:22.774Z,2.03
2023-05-06T10:56:49.668Z,1.40
2023-05-06T10:59:30.912Z,1.77
2023-05-06T11:02:09.497Z,1.63
2023-05-06T11:04:37.493Z,2.03
2023-05-06T11:07:22.329Z,2.20
2023-05-06T11:10:06.099Z,1.90
2023-05-06T11:12:55.550Z,1.73
2023-05-06T11:15:37.330Z,1.90
2023-05-06T11:18:29.359Z,1.57
2023-05-06T11:21:02.402Z,2.63
2023-05-06T11:23:52.032Z,2.00
2023-05-06T11:26:19.362Z,2.67
2023-05-06T11:28:49.999Z,2.07
2023-05-06T11:31:17.879Z,2.50
2023-05-06T11:33:52.350Z,1.90
2023-05-06T11:36:21.690Z,1.70
2023-05-06T11:38:53.156Z,1.83
2023-05-06T11:41:23.474Z,1.97
2023-05-06T11:43:53.704Z,1.80
2023-05-06T11:46:24.096Z,1.70
2023-05-06T11:48:51.188Z,2.17
2023-05-06T11:51:24.609Z,2.53
2023-05-06T11:54:03.764Z,2.10
2023-05-06T11:56:31.174Z,2.60
2023-05-06T11:58:58.205Z,2.30
2023-05-06T12:01:25.190Z,2.17
2023-05-06T12:03:56.052Z,2.90
2023-05-06T12:06:35.444Z,2.70
2023-05-06T12:09:07.907Z,2.50
2023-05-06T12:11:37.341Z,2.33
2023-05-06T12:14:08.754Z,1.90
2023-05-06T12:16:37.777Z,2.00
2023-05-06T12:19:05.798Z,2.30
2023-05-06T12:21:37.132Z,1.93
2023-05-06T12:24:05.962Z,2.47
2023-05-06T12:26:49.253Z,1.63
2023-05-06T12:29:18.428Z,1.77
2023-05-06T12:31:47.410Z,1.70
2023-05-06T12:34:18.126Z,1.30
2023-05-06T12:36:47.357Z,2.50
2023-05-06T12:39:14.630Z,2.50
2023-05-06T12:41:46.500Z,1.67
2023-05-06T12:44:39.921Z,1.70
2023-05-06T12:47:19.759Z,1.83
2023-05-06T12:49:58.997Z,1.87
2023-05-06T12:52:29.876Z,1.63
2023-05-06T12:55:00.725Z,1.50
2023-05-06T12:57:27.806Z,1.60
2023-05-06T12:59:56.542Z,1.53
2023-05-06T13:02:23.592Z,1.70
2023-05-06T13:04:50.573Z,1.30
2023-05-06T13:07:17.601Z,1.30
2023-05-06T13:09:44.812Z,1.77
2023-05-06T13:12:11.849Z,1.63
2023-05-06T13:14:40.301Z,1.50
2023-05-06T13:17:08.320Z,1.50
2023-05-06T13:19:35.813Z,1.40
2023-05-06T13:22:02.897Z,1.60
2023-05-06T13:24:30.658Z,1.70
2023-05-06T13:27:00.578Z,1.50
2023-05-06T13:29:28.048Z,1.60
2023-05-06T13:31:55.551Z,1.40
2023-05-06T13:34:22.455Z,1.53
2023-05-06T13:36:50.695Z,1.50
2023-05-06T13:39:17.739Z,1.37
2023-05-06T13:41:49.890Z,1.20
2023-05-06T13:44:18.880Z,1.57
2023-05-06T13:46:46.945Z,1.87
2023-05-06T13:49:18.367Z,1.67
2023-05-06T13:51:45.392Z,1.50
2023-05-06T13:54:12.487Z,1.60
2023-05-06T13:56:39.551Z,1.80
2023-05-06T13:59:08.036Z,1.47
2023-05-06T14:01:35.876Z,1.80
2023-05-06T14:04:03.035Z,1.67
2023-05-06T14:06:30.147Z,1.47
2023-05-06T14:08:57.331Z,1.37
2023-05-06T14:11:24.743Z,1.30
2023-05-06T14:13:52.159Z,1.30
2023-05-06T14:16:19.353Z,1.70
2023-05-06T14:18:46.324Z,1.50
2023-05-06T14:21:13.514Z,1.50
2023-05-06T14:23:40.709Z,1.20
2023-05-06T14:26:08.030Z,1.40
2023-05-06T14:28:35.527Z,1.47
2023-05-06T14:31:02.588Z,1.50
2023-05-06T14:33:29.474Z,1.20
2023-05-06T14:35:58.158Z,1.23
2023-05-06T14:38:25.164Z,1.10
2023-05-06T14:40:52.036Z,1.23
2023-05-06T14:43:19.249Z,3.17
2023-05-06T14:45:46.157Z,1.30
2023-05-06T14:48:13.177Z,1.43
2023-05-06T14:50:41.132Z,1.03
2023-05-06T14:53:08.134Z,1.10
2023-05-06T14:55:35.855Z,1.10
2023-05-06T14:58:03.512Z,1.00
2023-05-06T15:00:30.434Z,1.50
2023-05-06T15:02:57.390Z,1.10
2023-05-06T15:05:24.324Z,1.70
2023-05-06T15:07:51.830Z,1.60
2023-05-06T15:10:18.917Z,1.20
2023-05-06T15:12:46.107Z,1.43
2023-05-06T15:15:13.321Z,1.40
2023-05-06T15:17:41.715Z,1.30
2023-05-06T15:20:09.761Z,1.37
2023-05-06T15:22:39.349Z,1.47
2023-05-06T15:25:12.346Z,1.13
2023-05-06T15:27:43.727Z,1.37
2023-05-06T15:30:11.380Z,1.30
2023-05-06T15:32:38.359Z,1.10
2023-05-06T15:35:06.476Z,1.60
2023-05-06T15:37:34.991Z,1.27
2023-05-06T15:40:02.295Z,1.40
2023-05-06T15:42:30.030Z,1.57
2023-05-06T15:44:58.640Z,1.40
2023-05-06T15:47:25.706Z,1.60
2023-05-06T15:49:54.806Z,1.43
2023-05-06T15:52:23.003Z,1.07
2023-05-06T15:54:50.454Z,1.13
2023-05-06T15:57:17.918Z,0.97
2023-05-06T15:59:44.813Z,1.10
2023-05-06T16:04:41.816Z,1.30
2023-05-06T16:07:08.985Z,1.70
2023-05-06T16:09:36.136Z,1.57
2023-05-06T16:12:03.303Z,2.10
2023-05-06T16:14:30.211Z,1.37
2023-05-06T16:16:58.383Z,1.83
2023-05-06T16:19:25.958Z,1.93
2023-05-06T16:21:53.333Z,1.33
2023-05-06T16:24:20.241Z,1.80
2023-05-06T16:26:47.140Z,1.67
2023-05-06T16:29:17.243Z,1.60
2023-05-06T16:31:44.281Z,1.47
2023-05-06T16:34:11.268Z,1.27
2023-05-06T16:36:38.217Z,1.27
2023-05-06T16:39:07.897Z,1.17
2023-05-06T16:41:34.968Z,1.13
2023-05-06T16:44:02.199Z,1.63
2023-05-06T16:46:29.386Z,1.63
2023-05-06T16:48:56.332Z,1.27
2023-05-06T16:51:23.531Z,1.83
2023-05-06T16:53:50.955Z,1.83
2023-05-06T16:56:17.831Z,1.60
2023-05-06T16:58:44.723Z,2.10
2023-05-06T17:01:11.732Z,2.30
2023-05-06T17:03:39.036Z,1.57
2023-05-06T17:06:06.193Z,2.00
2023-05-06T17:08:36.278Z,1.30
2023-05-06T17:11:06.902Z,1.37
2023-05-06T17:13:34.649Z,1.50
2023-05-06T17:16:01.538Z,1.33
2023-05-06T17:18:28.527Z,1.00
2023-05-06T17:20:57.154Z,1.20
2023-05-06T17:23:25.357Z,1.37
2023-05-06T17:25:57.198Z,1.43
2023-05-06T17:28:24.796Z,1.30
2023-05-06T17:30:51.974Z,1.23
2023-05-06T17:33:19.230Z,1.90
2023-05-06T17:35:46.376Z,1.43
2023-05-06T17:38:13.696Z,1.50
2023-05-06T17:40:40.605Z,1.40
2023-05-06T17:43:07.622Z,1.60
2023-05-06T17:45:34.774Z,1.63
2023-05-06T17:48:01.949Z,1.40
2023-05-06T17:50:28.949Z,1.27
2023-05-06T17:52:56.011Z,1.40
2023-05-06T17:55:23.221Z,1.47
2023-05-06T17:57:52.342Z,1.37
2023-05-06T18:00:19.663Z,1.43
2023-05-06T18:02:46.876Z,1.40
2023-05-06T18:05:13.966Z,1.50
2023-05-06T18:07:41.161Z,1.53
2023-05-06T18:10:09.111Z,1.70
2023-05-06T18:12:36.764Z,1.33
2023-05-06T18:15:04.706Z,1.73
2023-05-06T18:17:31.612Z,1.73
2023-05-06T18:19:58.597Z,1.33
2023-05-06T18:22:25.708Z,1.43
2023-05-06T18:24:55.166Z,2.27
2023-05-06T18:27:22.748Z,2.37
2023-05-06T18:29:49.684Z,4.10
2023-05-06T18:32:17.736Z,2.73
2023-05-06T18:34:44.701Z,2.10
2023-05-06T18:37:11.605Z,1.93
2023-05-06T18:39:42.749Z,1.53
2023-05-06T18:42:10.019Z,1.63
2023-05-06T18:44:37.502Z,1.43
2023-05-06T18:47:05.018Z,1.80
2023-05-06T18:49:32.077Z,2.00
2023-05-06T18:51:59.126Z,2.37
2023-05-06T18:54:26.160Z,2.10
2023-05-06T18:56:53.367Z,2.23
2023-05-06T18:59:21.420Z,2.00
2023-05-06T19:01:48.475Z,2.20
2023-05-06T19:04:16.219Z,2.17
2023-05-06T19:06:43.264Z,1.67
2023-05-06T19:09:11.111Z,1.60
2023-05-06T19:11:38.480Z,1.80
2023-05-06T19:14:05.516Z,2.67
2023-05-06T19:16:32.520Z,3.07
2023-05-06T19:18:59.735Z,2.90
2023-05-06T19:21:27.846Z,2.23
2023-05-06T19:23:59.573Z,2.50
2023-05-06T19:26:29.516Z,3.20
2023-05-06T19:28:56.548Z,3.63
2023-05-06T19:31:23.717Z,3.77
2023-05-06T19:33:50.762Z,3.87
2023-05-06T19:36:17.768Z,3.20
2023-05-06T19:38:44.705Z,4.03
2023-05-06T19:41:11.914Z,3.80
2023-05-06T19:43:44.045Z,3.10
2023-05-06T19:46:12.227Z,3.43
2023-05-06T19:48:39.446Z,3.80
2023-05-06T19:51:06.811Z,3.60
2023-05-06T19:53:36.024Z,3.33
2023-05-06T19:56:14.120Z,3.00
2023-05-06T19:58:41.118Z,2.70
2023-05-06T20:01:08.904Z,3.40
2023-05-06T20:03:36.687Z,3.00
2023-05-06T20:06:04.260Z,3.60
2023-05-06T20:08:31.265Z,3.43
2023-05-06T20:10:58.395Z,3.00
2023-05-06T20:13:25.842Z,3.40
2023-05-06T20:15:54.859Z,3.47
2023-05-06T20:18:22.677Z,3.50
2023-05-06T20:20:49.702Z,3.27
2023-05-06T20:23:16.737Z,3.40
2023-05-06T20:25:43.655Z,2.97
2023-05-06T20:28:10.878Z,3.77
2023-05-06T20:30:38.366Z,3.70
2023-05-06T20:33:05.535Z,3.60
2023-05-06T20:35:38.125Z,3.93
2023-05-06T20:38:05.986Z,3.07
2023-05-06T20:40:35.589Z,3.80
2023-05-06T20:43:02.926Z,4.10
2023-05-06T20:45:30.927Z,4.80
2023-05-06T20:47:58.433Z,4.10
2023-05-06T20:50:25.617Z,4.57
2023-05-06T20:52:54.224Z,3.90
2023-05-06T20:55:23.297Z,4.27
2023-05-06T20:57:50.845Z,3.47
2023-05-06T21:00:19.175Z,3.50
2023-05-06T21:02:46.294Z,3.67
2023-05-06T21:05:13.482Z,4.13
2023-05-06T21:07:41.116Z,4.17
2023-05-06T21:10:11.330Z,4.53
2023-05-06T21:12:38.821Z,4.20
2023-05-06T21:15:07.024Z,3.70
2023-05-06T21:17:34.034Z,3.40
2023-05-06T21:20:01.407Z,3.20
2023-05-06T21:22:28.985Z,3.93
2023-05-06T21:24:55.933Z,4.30
2023-05-06T21:27:23.065Z,3.40
2023-05-06T21:29:50.147Z,3.50
2023-05-06T21:32:17.196Z,3.50
2023-05-06T21:34:44.162Z,3.77
2023-05-06T21:37:11.510Z,3.17
2023-05-06T21:39:38.474Z,3.97
2023-05-06T21:42:05.465Z,3.10
2023-05-06T21:44:32.447Z,2.40
2023-05-06T21:46:59.387Z,2.83
2023-05-06T21:49:26.484Z,2.97
2023-05-06T21:51:53.463Z,3.30
2023-05-06T21:54:21.069Z,3.30
2023-05-06T21:56:48.167Z,3.30
2023-05-06T21:59:15.037Z,3.80
2023-05-06T22:01:42.139Z,3.97
2023-05-06T22:04:12.849Z,3.50
2023-05-06T22:06:40.190Z,2.80
2023-05-06T22:09:09.205Z,3.40
2023-05-06T22:11:38.106Z,4.30
2023-05-06T22:14:06.348Z,4.03
2023-05-06T22:16:35.163Z,4.20
2023-05-06T22:19:03.020Z,4.00
2023-05-06T22:21:31.664Z,4.27
2023-05-06T22:23:58.666Z,3.30
2023-05-06T22:26:27.992Z,3.63
2023-05-06T22:28:56.413Z,3.10
2023-05-06T22:31:24.445Z,4.50
2023-05-06T22:33:57.335Z,3.83
2023-05-06T22:36:28.902Z,4.43
2023-05-06T22:38:56.141Z,4.20
2023-05-06T22:41:23.167Z,3.20
2023-05-06T22:43:50.135Z,3.67
2023-05-06T22:46:17.829Z,3.80
2023-05-06T22:48:46.200Z,3.33
2023-05-06T22:51:18.564Z,3.30
2023-05-06T22:53:45.508Z,2.20
2023-05-06T22:56:12.535Z,2.77
2023-05-06T22:58:39.554Z,2.73
2023-05-06T23:01:07.363Z,2.53
2023-05-06T23:03:36.025Z,2.93
2023-05-06T23:06:04.339Z,2.93
2023-05-06T23:08:31.454Z,2.17
2023-05-06T23:10:58.340Z,2.37
2023-05-06T23:13:26.361Z,2.70
2023-05-06T23:15:53.601Z,2.30
2023-05-06T23:18:20.832Z,2.40
2023-05-06T23:20:47.957Z,2.50
2023-05-06T23:23:14.864Z,2.20
2023-05-06T23:25:41.755Z,2.27
2023-05-06T23:28:08.653Z,2.60
2023-05-06T23:30:35.647Z,2.53
2023-05-06T23:33:03.693Z,2.23
2023-05-06T23:35:30.658Z,2.17
2023-05-06T23:37:57.516Z,2.30
2023-05-06T23:40:24.426Z,2.10
2023-05-06T23:42:51.414Z,2.33
2023-05-06T23:45:19.627Z,2.03
2023-05-06T23:47:46.679Z,2.00
2023-05-06T23:50:14.285Z,3.07
2023-05-06T23:52:41.447Z,2.63
2023-05-06T23:55:09.261Z,2.57
2023-05-06T23:57:36.491Z,2.73
